Buoy 52514

sailwx.info

Track history (hours):
 
Tides and Currents Weather Stations Pressure Air Temp Water Temp Dewpoint Dewpoint Depression Visibility Wind Speed Wind Dir Waves Ship Positions

Drifting buoy 52514

Last reported at 2014-Sep-15 00:00 UTC. Time now 2014-Sep-15 04:09 UTC.
Position N 25°50' E 132°48'.

Water temperature 28.8 ° C

Date/timePositionNaut miles runAvg speedWind from/ knotsBaromVisibWave heightAir tempDewpointWater temp
2014-Sep-15 00:00N 25°50' E 132°48'2 0.9 28.8
2014-Sep-14 22:00N 25°50' E 132°50'2 2.3 28.6
2014-Sep-14 21:00N 25°51' E 132°52'0 0.5 28.6
2014-Sep-14 20:00N 25°52' E 132°52'0 0.3 28.6
2014-Sep-14 19:00N 25°52' E 132°52'2 1.5 28.6
2014-Sep-14 18:00N 25°53' E 132°54'0 0.2 28.6
2014-Sep-14 17:00N 25°53' E 132°54'3 1.7 28.6
2014-Sep-14 15:00N 25°55' E 132°57'1 0.3 28.6
2014-Sep-14 11:00N 25°56' E 132°57'0 0.0 28.8
2014-Sep-14 09:00N 25°56' E 132°57'3 1.3 28.9
2014-Sep-14 07:00N 25°53' E 132°57'0 0.0 29.0
2014-Sep-14 05:00N 25°53' E 132°57'4 4.3 29.2
2014-Sep-14 04:00N 25°49' E 132°60'0 0.0 28.9
2014-Sep-14 03:00N 25°49' E 132°60'1 0.7 28.7
2014-Sep-14 01:00N 25°49' E 133°01'6 1.1 28.8
2014-Sep-13 20:00N 25°47' E 133°07'2 0.6 28.8
2014-Sep-13 17:00N 25°48' E 133°09'6 1.2 28.8
2014-Sep-13 12:00N 25°52' E 133°13'1 0.7 28.8
2014-Sep-13 11:00N 25°53' E 133°14'3 0.9 28.9
2014-Sep-13 08:00N 25°54' E 133°11'2 1.5 29.3
2014-Sep-13 07:00N 25°53' E 133°10'1 0.6 29.6
2014-Sep-13 05:00N 25°53' E 133°09'0 0.0 29.3
2014-Sep-13 03:00N 25°53' E 133°09'4 0.7 29.1
2014-Sep-12 21:00N 25°51' E 133°13'0 0.4 28.5
2014-Sep-12 20:00N 25°51' E 133°13'2 2.3 28.5
2014-Sep-12 19:00N 25°51' E 133°16'0 0.5 28.5
2014-Sep-12 18:00N 25°51' E 133°16'2 1.6 28.5
2014-Sep-12 17:00N 25°52' E 133°17'0 0.0 28.5
2014-Sep-12 16:00N 25°52' E 133°17'0 0.0 28.6
2014-Sep-12 15:00N 25°52' E 133°17'4 2.0 28.7
2014-Sep-12 13:00N 25°56' E 133°19'0 0.0 28.7
2014-Sep-12 12:00N 25°56' E 133°19'5 1.2 28.7
2014-Sep-12 08:00N 26°00' E 133°20'1 0.6 28.9
2014-Sep-12 07:00N 26°01' E 133°19'0 0.4 28.9
2014-Sep-12 06:00N 26°01' E 133°19'1 0.3 28.9
2014-Sep-12 03:00N 26°02' E 133°19'2 1.1 28.6
2014-Sep-12 01:00N 26°04' E 133°17'0 0.1 28.7
2014-Sep-11 22:00N 26°04' E 133°18'0 0.4 28.4
2014-Sep-11 21:00N 26°04' E 133°18'1 0.7 28.4
2014-Sep-11 20:00N 26°04' E 133°19'2 1.5 28.4
2014-Sep-11 19:00N 26°05' E 133°20'0 0.4 28.4
2014-Sep-11 18:00N 26°05' E 133°21'1 0.7 28.4
2014-Sep-11 16:00N 26°06' E 133°22'2 1.8 28.4
2014-Sep-11 15:00N 26°07' E 133°23'9 1.5 28.4
2014-Sep-11 09:00N 26°14' E 133°30'2 0.8 28.6
2014-Sep-11 06:00N 26°15' E 133°32'5 4.8 28.6
2014-Sep-11 05:00N 26°20' E 133°33'0 0.1 28.6
2014-Sep-11 04:00N 26°20' E 133°33'5 0.8 28.6
2014-Sep-10 21:00N 26°25' E 133°30'1 0.4 28.3
2014-Sep-10 19:00N 26°24' E 133°30'2 0.7 28.4
2014-Sep-10 16:00N 26°23' E 133°33'8 1.6 28.6
2014-Sep-10 11:00N 26°26' E 133°41'2 1.2 28.5
2014-Sep-10 09:00N 26°27' E 133°43'0 0.0 28.6
2014-Sep-10 08:00N 26°27' E 133°43'2 1.6 28.8
2014-Sep-10 07:00N 26°28' E 133°44'1 0.9 28.9
2014-Sep-10 06:00N 26°29' E 133°45'2 1.0 29.1
2014-Sep-10 04:00N 26°31' E 133°46'4 1.4 29.7
2014-Sep-10 01:00N 26°35' E 133°46'4 1.1 28.6
2014-Sep-09 21:00N 26°38' E 133°42'0 0.3 28.2
2014-Sep-09 20:00N 26°38' E 133°42'1 0.5 28.2
2014-Sep-09 18:00N 26°37' E 133°40'3 1.1 28.2
2014-Sep-09 15:00N 26°36' E 133°44'0 0.0 28.2
2014-Sep-09 13:00N 26°36' E 133°44'4 0.8 28.2
2014-Sep-09 08:00N 26°38' E 133°47'1 0.6 28.4
2014-Sep-09 06:00N 26°38' E 133°49'2 1.0 28.5
2014-Sep-09 04:00N 26°40' E 133°50'0 0.0 28.5
2014-Sep-09 03:00N 26°40' E 133°50'7 2.3 28.3
2014-Sep-09 00:00N 26°47' E 133°49'1 0.3 28.0
2014-Sep-08 21:00N 26°47' E 133°49'1 0.6 28.1
2014-Sep-08 20:00N 26°48' E 133°48'1 1.2 28.1
2014-Sep-08 19:00N 26°49' E 133°47'0 0.4 28.1
2014-Sep-08 18:00N 26°49' E 133°47'1 1.3 28.1
2014-Sep-08 17:00N 26°49' E 133°45'1 0.3 28.1
2014-Sep-08 12:00N 26°49' E 133°44'1 1.2 28.2
2014-Sep-08 11:00N 26°48' E 133°45'0 0.3 28.2
2014-Sep-08 10:00N 26°48' E 133°46'1 0.6 28.2
2014-Sep-08 08:00N 26°49' E 133°47'2 0.9 28.2
2014-Sep-08 06:00N 26°50' E 133°49'0 0.0 28.3
2014-Sep-08 05:00N 26°50' E 133°49'0 0.2 28.2
2014-Sep-08 04:00N 26°50' E 133°49'5 4.8 28.3
2014-Sep-08 03:00N 26°53' E 133°52'8 4.0 28.3
2014-Sep-08 01:00N 27°01' E 133°53'1 0.3 28.3
2014-Sep-07 21:00N 27°02' E 133°53'7 1.8 28.3
2014-Sep-07 17:00N 27°07' E 133°47'6 1.5 28.5
2014-Sep-07 13:00N 27°11' E 133°42'6 1.5 28.7
2014-Sep-07 09:00N 27°14' E 133°36'2 0.4 28.8
2014-Sep-07 03:00N 27°15' E 133°34'0 0.0 28.9
2014-Sep-07 02:00N 27°15' E 133°34'1 0.2 28.9
2014-Sep-06 21:00N 27°14' E 133°35'1 1.0 29.0
2014-Sep-06 20:00N 27°15' E 133°35'8 2.8 29.0
2014-Sep-06 17:00N 27°23' E 133°38'0 0.0 29.0
2014-Sep-06 16:00N 27°23' E 133°38'1 0.3 29.0
2014-Sep-06 12:00N 27°24' E 133°38'3 2.7 29.0
2014-Sep-06 11:00N 27°27' E 133°38'3 1.7 29.0
2014-Sep-06 09:00N 27°29' E 133°35'3 1.5 29.1
2014-Sep-06 07:00N 27°31' E 133°33'3 2.9 29.1
2014-Sep-06 06:00N 27°30' E 133°36'5 2.6 29.1
2014-Sep-06 04:00N 27°32' E 133°30'0 0.0 29.2
2014-Sep-06 03:00N 27°32' E 133°30'1 0.4 29.1
2014-Sep-05 23:00N 27°31' E 133°30'1 0.5 29.0
2014-Sep-05 21:00N 27°30' E 133°31'0 0.3 29.0
2014-Sep-05 20:00N 27°30' E 133°31'2 0.6 29.0
2014-Sep-05 17:00N 27°30' E 133°33'8 1.9 29.0
2014-Sep-05 13:00N 27°37' E 133°37'0 0.0 29.1
2014-Sep-05 12:00N 27°37' E 133°37'1 0.4 29.1
2014-Sep-05 09:00N 27°38' E 133°37'5 2.5 29.2
2014-Sep-05 07:00N 27°43' E 133°34'0 0.0 29.4
2014-Sep-05 05:00N 27°43' E 133°34'0 0.0 29.4
2014-Sep-05 04:00N 27°43' E 133°34'1 0.8 29.5
2014-Sep-05 03:00N 27°43' E 133°34'0 0.0 29.4
2014-Sep-05 01:00N 27°43' E 133°34'   29.3
Track history (hours):
 
Tides and Currents Weather Stations Pressure Air Temp Water Temp Dewpoint Dewpoint Depression Visibility Wind Speed Wind Dir Waves Ship Positions

Drifting buoy 52514

Last reported at 2014-Sep-15 00:00 UTC. Time now 2014-Sep-15 04:09 UTC.
Position N 25°50' E 132°48'.

Water temperature 28.8 ° C

Date/timePositionNaut miles runAvg speedWind from/ knotsBaromVisibWave heightAir tempDewpointWater temp
2014-Sep-15 00:00N 25°50' E 132°48'2 0.9 28.8
2014-Sep-14 22:00N 25°50' E 132°50'2 2.3 28.6
2014-Sep-14 21:00N 25°51' E 132°52'0 0.5 28.6
2014-Sep-14 20:00N 25°52' E 132°52'0 0.3 28.6
2014-Sep-14 19:00N 25°52' E 132°52'2 1.5 28.6
2014-Sep-14 18:00N 25°53' E 132°54'0 0.2 28.6
2014-Sep-14 17:00N 25°53' E 132°54'3 1.7 28.6
2014-Sep-14 15:00N 25°55' E 132°57'1 0.3 28.6
2014-Sep-14 11:00N 25°56' E 132°57'0 0.0 28.8
2014-Sep-14 09:00N 25°56' E 132°57'3 1.3 28.9
2014-Sep-14 07:00N 25°53' E 132°57'0 0.0 29.0
2014-Sep-14 05:00N 25°53' E 132°57'4 4.3 29.2
2014-Sep-14 04:00N 25°49' E 132°60'0 0.0 28.9
2014-Sep-14 03:00N 25°49' E 132°60'1 0.7 28.7
2014-Sep-14 01:00N 25°49' E 133°01'6 1.1 28.8
2014-Sep-13 20:00N 25°47' E 133°07'2 0.6 28.8
2014-Sep-13 17:00N 25°48' E 133°09'6 1.2 28.8
2014-Sep-13 12:00N 25°52' E 133°13'1 0.7 28.8
2014-Sep-13 11:00N 25°53' E 133°14'3 0.9 28.9
2014-Sep-13 08:00N 25°54' E 133°11'2 1.5 29.3
2014-Sep-13 07:00N 25°53' E 133°10'1 0.6 29.6
2014-Sep-13 05:00N 25°53' E 133°09'0 0.0 29.3
2014-Sep-13 03:00N 25°53' E 133°09'4 0.7 29.1
2014-Sep-12 21:00N 25°51' E 133°13'0 0.4 28.5
2014-Sep-12 20:00N 25°51' E 133°13'2 2.3 28.5
2014-Sep-12 19:00N 25°51' E 133°16'0 0.5 28.5
2014-Sep-12 18:00N 25°51' E 133°16'2 1.6 28.5
2014-Sep-12 17:00N 25°52' E 133°17'0 0.0 28.5
2014-Sep-12 16:00N 25°52' E 133°17'0 0.0 28.6
2014-Sep-12 15:00N 25°52' E 133°17'4 2.0 28.7
2014-Sep-12 13:00N 25°56' E 133°19'0 0.0 28.7
2014-Sep-12 12:00N 25°56' E 133°19'5 1.2 28.7
2014-Sep-12 08:00N 26°00' E 133°20'1 0.6 28.9
2014-Sep-12 07:00N 26°01' E 133°19'0 0.4 28.9
2014-Sep-12 06:00N 26°01' E 133°19'1 0.3 28.9
2014-Sep-12 03:00N 26°02' E 133°19'2 1.1 28.6
2014-Sep-12 01:00N 26°04' E 133°17'0 0.1 28.7
2014-Sep-11 22:00N 26°04' E 133°18'0 0.4 28.4
2014-Sep-11 21:00N 26°04' E 133°18'1 0.7 28.4
2014-Sep-11 20:00N 26°04' E 133°19'2 1.5 28.4
2014-Sep-11 19:00N 26°05' E 133°20'0 0.4 28.4
2014-Sep-11 18:00N 26°05' E 133°21'1 0.7 28.4
2014-Sep-11 16:00N 26°06' E 133°22'2 1.8 28.4
2014-Sep-11 15:00N 26°07' E 133°23'9 1.5 28.4
2014-Sep-11 09:00N 26°14' E 133°30'2 0.8 28.6
2014-Sep-11 06:00N 26°15' E 133°32'5 4.8 28.6
2014-Sep-11 05:00N 26°20' E 133°33'0 0.1 28.6
2014-Sep-11 04:00N 26°20' E 133°33'5 0.8 28.6
2014-Sep-10 21:00N 26°25' E 133°30'1 0.4 28.3
2014-Sep-10 19:00N 26°24' E 133°30'2 0.7 28.4
2014-Sep-10 16:00N 26°23' E 133°33'8 1.6 28.6
2014-Sep-10 11:00N 26°26' E 133°41'2 1.2 28.5
2014-Sep-10 09:00N 26°27' E 133°43'0 0.0 28.6
2014-Sep-10 08:00N 26°27' E 133°43'2 1.6 28.8
2014-Sep-10 07:00N 26°28' E 133°44'1 0.9 28.9
2014-Sep-10 06:00N 26°29' E 133°45'2 1.0 29.1
2014-Sep-10 04:00N 26°31' E 133°46'4 1.4 29.7
2014-Sep-10 01:00N 26°35' E 133°46'4 1.1 28.6
2014-Sep-09 21:00N 26°38' E 133°42'0 0.3 28.2
2014-Sep-09 20:00N 26°38' E 133°42'1 0.5 28.2
2014-Sep-09 18:00N 26°37' E 133°40'3 1.1 28.2
2014-Sep-09 15:00N 26°36' E 133°44'0 0.0 28.2
2014-Sep-09 13:00N 26°36' E 133°44'4 0.8 28.2
2014-Sep-09 08:00N 26°38' E 133°47'1 0.6 28.4
2014-Sep-09 06:00N 26°38' E 133°49'2 1.0 28.5
2014-Sep-09 04:00N 26°40' E 133°50'0 0.0 28.5
2014-Sep-09 03:00N 26°40' E 133°50'7 2.3 28.3
2014-Sep-09 00:00N 26°47' E 133°49'1 0.3 28.0
2014-Sep-08 21:00N 26°47' E 133°49'1 0.6 28.1
2014-Sep-08 20:00N 26°48' E 133°48'1 1.2 28.1
2014-Sep-08 19:00N 26°49' E 133°47'0 0.4 28.1
2014-Sep-08 18:00N 26°49' E 133°47'1 1.3 28.1
2014-Sep-08 17:00N 26°49' E 133°45'1 0.3 28.1
2014-Sep-08 12:00N 26°49' E 133°44'1 1.2 28.2
2014-Sep-08 11:00N 26°48' E 133°45'0 0.3 28.2
2014-Sep-08 10:00N 26°48' E 133°46'1 0.6 28.2
2014-Sep-08 08:00N 26°49' E 133°47'2 0.9 28.2
2014-Sep-08 06:00N 26°50' E 133°49'0 0.0 28.3
2014-Sep-08 05:00N 26°50' E 133°49'0 0.2 28.2
2014-Sep-08 04:00N 26°50' E 133°49'5 4.8 28.3
2014-Sep-08 03:00N 26°53' E 133°52'8 4.0 28.3
2014-Sep-08 01:00N 27°01' E 133°53'1 0.3 28.3
2014-Sep-07 21:00N 27°02' E 133°53'7 1.8 28.3
2014-Sep-07 17:00N 27°07' E 133°47'6 1.5 28.5
2014-Sep-07 13:00N 27°11' E 133°42'6 1.5 28.7
2014-Sep-07 09:00N 27°14' E 133°36'2 0.4 28.8
2014-Sep-07 03:00N 27°15' E 133°34'0 0.0 28.9
2014-Sep-07 02:00N 27°15' E 133°34'1 0.2 28.9
2014-Sep-06 21:00N 27°14' E 133°35'1 1.0 29.0
2014-Sep-06 20:00N 27°15' E 133°35'8 2.8 29.0
2014-Sep-06 17:00N 27°23' E 133°38'0 0.0 29.0
2014-Sep-06 16:00N 27°23' E 133°38'1 0.3 29.0
2014-Sep-06 12:00N 27°24' E 133°38'3 2.7 29.0
2014-Sep-06 11:00N 27°27' E 133°38'3 1.7 29.0
2014-Sep-06 09:00N 27°29' E 133°35'3 1.5 29.1
2014-Sep-06 07:00N 27°31' E 133°33'3 2.9 29.1
2014-Sep-06 06:00N 27°30' E 133°36'5 2.6 29.1
2014-Sep-06 04:00N 27°32' E 133°30'0 0.0 29.2
2014-Sep-06 03:00N 27°32' E 133°30'1 0.4 29.1
2014-Sep-05 23:00N 27°31' E 133°30'1 0.5 29.0
2014-Sep-05 21:00N 27°30' E 133°31'0 0.3 29.0
2014-Sep-05 20:00N 27°30' E 133°31'2 0.6 29.0
2014-Sep-05 17:00N 27°30' E 133°33'8 1.9 29.0
2014-Sep-05 13:00N 27°37' E 133°37'0 0.0 29.1
2014-Sep-05 12:00N 27°37' E 133°37'1 0.4 29.1
2014-Sep-05 09:00N 27°38' E 133°37'5 2.5 29.2
2014-Sep-05 07:00N 27°43' E 133°34'0 0.0 29.4
2014-Sep-05 05:00N 27°43' E 133°34'0 0.0 29.4
2014-Sep-05 04:00N 27°43' E 133°34'1 0.8 29.5
2014-Sep-05 03:00N 27°43' E 133°34'0 0.0 29.4
2014-Sep-05 01:00N 27°43' E 133°34'   29.3

Dump ship's entire track history